createdAt,value
2023-05-23T00:02:08.238Z,99297.75
2023-05-23T00:04:38.683Z,99305.72
2023-05-23T00:07:06.308Z,99294.78
2023-05-23T00:09:33.764Z,99291.50
2023-05-23T00:12:01.992Z,99289.66
2023-05-23T00:14:34.042Z,99298.41
2023-05-23T00:17:02.004Z,99284.53
2023-05-23T00:19:29.675Z,99293.44
2023-05-23T00:21:58.483Z,99285.84
2023-05-23T00:24:27.259Z,99284.41
2023-05-23T00:26:54.802Z,99284.41
2023-05-23T00:29:22.230Z,99284.03
2023-05-23T00:31:50.824Z,99293.63
2023-05-23T00:34:18.575Z,99290.81
2023-05-23T00:36:48.077Z,99289.38
2023-05-23T00:39:20.688Z,99284.22
2023-05-23T00:41:52.138Z,99286.13
2023-05-23T00:44:21.876Z,99287.69
2023-05-23T00:46:53.311Z,99288.16
2023-05-23T00:49:21.483Z,99286.41
2023-05-23T00:51:52.045Z,99298.88
2023-05-23T00:54:29.619Z,99286.97
2023-05-23T00:56:58.409Z,99294.66
2023-05-23T00:59:26.591Z,99286.09
2023-05-23T01:01:56.460Z,99288.81
2023-05-23T01:04:26.704Z,99288.16
2023-05-23T01:06:55.585Z,99302.28
2023-05-23T01:09:23.917Z,99288.34
2023-05-23T01:12:10.831Z,99286.59
2023-05-23T01:14:47.310Z,99291.38
2023-05-23T01:17:24.996Z,99284.44
2023-05-23T01:20:01.367Z,99283.13
2023-05-23T01:23:00.419Z,99281.03
2023-05-23T01:25:59.504Z,99272.25
2023-05-23T01:28:33.988Z,99271.41
2023-05-23T01:31:02.988Z,99270.34
2023-05-23T01:33:32.179Z,99267.47
2023-05-23T01:36:02.541Z,99270.56
2023-05-23T01:38:30.189Z,99268.22
2023-05-23T01:40:58.345Z,99267.00
2023-05-23T01:43:25.959Z,99259.63
2023-05-23T01:45:54.717Z,99259.97
2023-05-23T01:48:24.076Z,99261.97
2023-05-23T01:50:51.672Z,99269.63
2023-05-23T01:53:21.597Z,99264.19
2023-05-23T01:55:49.546Z,99267.66
2023-05-23T01:58:17.434Z,99259.03
2023-05-23T02:00:45.213Z,99263.38
2023-05-23T02:03:13.146Z,99254.19
2023-05-23T02:05:41.305Z,99250.09
2023-05-23T02:08:09.164Z,99248.75
2023-05-23T02:10:38.977Z,99247.06
2023-05-23T02:13:06.511Z,99246.31
2023-05-23T02:15:33.984Z,99254.66
2023-05-23T02:18:03.305Z,99250.44
2023-05-23T02:20:31.339Z,99249.59
2023-05-23T02:22:59.085Z,99250.12
2023-05-23T02:25:26.817Z,99251.56
2023-05-23T02:27:54.298Z,99246.78
2023-05-23T02:30:22.459Z,99250.81
2023-05-23T02:32:50.310Z,99248.28
2023-05-23T02:35:17.974Z,99249.78
2023-05-23T02:37:46.286Z,99237.50
2023-05-23T02:40:14.008Z,99247.16
2023-05-23T02:42:42.264Z,99239.75
2023-05-23T02:45:10.379Z,99247.37
2023-05-23T02:47:38.063Z,99243.69
2023-05-23T02:50:06.083Z,99248.28
2023-05-23T02:52:34.155Z,99242.75
2023-05-23T02:55:01.981Z,99239.47
2023-05-23T02:57:29.749Z,99242.12
2023-05-23T02:59:57.573Z,99239.03
2023-05-23T03:02:25.143Z,99238.91
2023-05-23T03:04:52.669Z,99231.87
2023-05-23T03:07:27.486Z,99236.72
2023-05-23T03:09:55.506Z,99233.09
2023-05-23T03:12:23.359Z,99240.88
2023-05-23T03:14:50.864Z,99241.06
2023-05-23T03:17:18.433Z,99240.59
2023-05-23T03:19:46.199Z,99239.56
2023-05-23T03:22:13.700Z,99246.03
2023-05-23T03:24:43.179Z,99246.22
2023-05-23T03:27:11.850Z,99245.66
2023-05-23T03:29:39.734Z,99246.41
2023-05-23T03:32:07.377Z,99242.78
2023-05-23T03:34:36.651Z,99246.03
2023-05-23T03:37:04.599Z,99234.59
2023-05-23T03:39:32.121Z,99238.72
2023-05-23T03:41:59.939Z,99234.41
2023-05-23T03:44:27.877Z,99236.28
2023-05-23T03:46:55.652Z,99243.97
2023-05-23T03:49:23.433Z,99243.41
2023-05-23T03:51:51.552Z,99237.81
2023-05-23T03:54:19.146Z,99245.50
2023-05-23T03:56:46.953Z,99252.22
2023-05-23T03:59:15.859Z,99237.81
2023-05-23T04:01:43.659Z,99241.16
2023-05-23T04:04:11.556Z,99236.75
2023-05-23T04:06:39.542Z,99241.25
2023-05-23T04:09:07.084Z,99234.88
2023-05-23T04:11:35.570Z,99241.06
2023-05-23T04:14:04.408Z,99246.78
2023-05-23T04:16:33.452Z,99247.34
2023-05-23T04:19:05.477Z,99249.41
2023-05-23T04:21:33.917Z,99246.03
2023-05-23T04:24:03.067Z,99245.00
2023-05-23T04:26:30.972Z,99238.16
2023-05-23T04:28:59.327Z,99249.94
2023-05-23T04:31:27.288Z,99233.34
2023-05-23T04:33:54.866Z,99243.38
2023-05-23T04:36:23.634Z,99239.59
2023-05-23T04:38:52.369Z,99233.16
2023-05-23T04:41:23.528Z,99243.28
2023-05-23T04:43:54.592Z,99240.63
2023-05-23T04:46:26.465Z,99239.25
2023-05-23T04:48:58.887Z,99238.53
2023-05-23T04:51:26.527Z,99242.38
2023-05-23T04:53:54.419Z,99242.03
2023-05-23T04:56:27.357Z,99238.16
2023-05-23T04:58:56.094Z,99244.00
2023-05-23T05:01:24.904Z,99240.00
2023-05-23T05:03:53.064Z,99245.09
2023-05-23T05:06:21.742Z,99239.06
2023-05-23T05:08:49.950Z,99241.84
2023-05-23T05:11:17.465Z,99242.53
2023-05-23T05:13:44.956Z,99242.19
2023-05-23T05:16:12.789Z,99240.19
2023-05-23T05:18:40.479Z,99240.00
2023-05-23T05:21:08.301Z,99234.81
2023-05-23T05:23:37.631Z,99242.41
2023-05-23T05:26:06.523Z,99234.69
2023-05-23T05:28:33.996Z,99236.75
2023-05-23T05:31:05.214Z,99237.63
2023-05-23T05:33:36.444Z,99234.69
2023-05-23T05:36:06.608Z,99236.94
2023-05-23T05:38:34.284Z,99242.72
2023-05-23T05:41:01.820Z,99227.38
2023-05-23T05:43:30.388Z,99241.69
2023-05-23T05:45:57.897Z,99242.28
2023-05-23T05:48:25.517Z,99235.66
2023-05-23T05:50:54.022Z,99239.03
2023-05-23T05:53:21.490Z,99240.69
2023-05-23T05:55:49.032Z,99244.91
2023-05-23T05:58:16.856Z,99242.41
2023-05-23T06:00:45.441Z,99237.53
2023-05-23T06:03:14.226Z,99234.41
2023-05-23T06:05:43.323Z,99238.19
2023-05-23T06:08:12.178Z,99229.34
2023-05-23T06:10:40.184Z,99227.69
2023-05-23T06:13:07.874Z,99230.41
2023-05-23T06:15:36.106Z,99232.53
2023-05-23T06:18:04.271Z,99229.75
2023-05-23T06:20:32.031Z,99230.19
2023-05-23T06:23:00.483Z,99228.94
2023-05-23T06:25:28.476Z,99228.31
2023-05-23T06:27:55.983Z,99230.41
2023-05-23T06:30:24.471Z,99232.06
2023-05-23T06:32:52.535Z,99233.94
2023-05-23T06:35:20.129Z,99228.47
2023-05-23T06:37:48.478Z,99232.72
2023-05-23T06:40:16.376Z,99227.25
2023-05-23T06:42:43.956Z,99233.47
2023-05-23T06:45:12.822Z,99228.38
2023-05-23T06:47:43.957Z,99218.72
2023-05-23T06:50:11.690Z,99231.84
2023-05-23T06:52:39.391Z,99225.47
2023-05-23T06:55:07.431Z,99218.25
2023-05-23T06:57:35.303Z,99222.63
2023-05-23T07:00:02.990Z,99222.75
2023-05-23T07:02:32.645Z,99219.19
2023-05-23T07:05:00.355Z,99222.25
2023-05-23T07:07:29.734Z,99218.06
2023-05-23T07:09:57.497Z,99214.13
2023-05-23T07:12:25.288Z,99222.03
2023-05-23T07:14:52.828Z,99218.66
2023-05-23T07:17:21.151Z,99209.13
2023-05-23T07:19:48.944Z,99208.97
2023-05-23T07:22:16.439Z,99197.91
2023-05-23T07:24:44.496Z,99203.47
2023-05-23T07:27:12.642Z,99202.41
2023-05-23T07:29:40.087Z,99205.59
2023-05-23T07:32:08.294Z,99205.66
2023-05-23T07:34:35.797Z,99202.75
2023-05-23T07:37:03.592Z,99206.75
2023-05-23T07:39:32.039Z,99214.47
2023-05-23T07:42:00.069Z,99201.94
2023-05-23T07:44:28.630Z,99204.66
2023-05-23T07:46:56.599Z,99201.28
2023-05-23T07:49:24.374Z,99205.94
2023-05-23T07:51:51.875Z,99200.06
2023-05-23T07:54:19.635Z,99203.59
2023-05-23T07:56:48.932Z,99201.44
2023-05-23T07:59:16.754Z,99199.44
2023-05-23T08:01:45.671Z,99202.44
2023-05-23T08:04:13.839Z,99198.06
2023-05-23T08:06:48.815Z,99196.41
2023-05-23T08:09:24.932Z,99197.59
2023-05-23T08:11:52.693Z,99188.75
2023-05-23T08:14:21.823Z,99196.66
2023-05-23T08:16:50.886Z,99191.13
2023-05-23T08:19:18.940Z,99189.97
2023-05-23T08:21:47.230Z,99194.63
2023-05-23T08:24:15.529Z,99200.72
2023-05-23T08:26:43.552Z,99194.34
2023-05-23T08:29:11.321Z,99199.06
2023-05-23T08:31:39.357Z,99198.75
2023-05-23T08:34:08.023Z,99199.66
2023-05-23T08:36:37.051Z,99204.94
2023-05-23T08:39:05.856Z,99198.91
2023-05-23T08:41:34.346Z,99199.72
2023-05-23T08:44:02.250Z,99194.94
2023-05-23T08:46:31.757Z,99194.81
2023-05-23T08:49:01.101Z,99193.50
2023-05-23T08:51:29.720Z,99199.03
2023-05-23T08:53:59.458Z,99204.06
2023-05-23T08:56:28.473Z,99202.03
2023-05-23T08:58:58.191Z,99202.75
2023-05-23T09:01:26.613Z,99203.91
2023-05-23T09:03:55.980Z,99201.78
2023-05-23T09:06:25.431Z,99196.41
2023-05-23T09:08:54.129Z,99197.62
2023-05-23T09:11:22.098Z,99186.28
2023-05-23T09:13:49.944Z,99197.47
2023-05-23T09:16:18.488Z,99196.88
2023-05-23T09:18:46.574Z,99199.88
2023-05-23T09:21:14.559Z,99196.53
2023-05-23T09:23:43.964Z,99194.00
2023-05-23T09:26:13.344Z,99195.56
2023-05-23T09:28:43.245Z,99186.94
2023-05-23T09:31:11.144Z,99191.25
2023-05-23T09:33:49.494Z,99194.34
2023-05-23T09:36:18.216Z,99188.28
2023-05-23T09:38:47.107Z,99200.66
2023-05-23T09:41:14.912Z,99195.47
2023-05-23T09:43:52.597Z,99197.19
2023-05-23T09:46:21.432Z,99193.44
2023-05-23T09:48:53.907Z,99183.41
2023-05-23T09:51:23.481Z,99190.34
2023-05-23T09:53:53.007Z,99184.66
2023-05-23T09:56:20.561Z,99179.91
2023-05-23T09:58:49.822Z,99189.75
2023-05-23T10:01:18.038Z,99191.28
2023-05-23T10:03:50.896Z,99185.56
2023-05-23T10:06:32.943Z,99190.25
2023-05-23T10:09:08.736Z,99182.81
2023-05-23T10:12:14.407Z,99181.78
2023-05-23T10:14:46.188Z,99179.00
2023-05-23T10:17:25.815Z,99170.94
2023-05-23T10:20:10.291Z,99172.22
2023-05-23T10:22:38.331Z,99162.41
2023-05-23T10:25:07.509Z,99162.44
2023-05-23T10:27:35.310Z,99164.16
2023-05-23T10:30:02.843Z,99160.97
2023-05-23T10:32:31.802Z,99157.56
2023-05-23T10:34:59.185Z,99154.37
2023-05-23T10:37:33.051Z,99156.59
2023-05-23T10:40:29.156Z,99153.81
2023-05-23T10:43:04.405Z,99151.19
2023-05-23T10:45:42.383Z,99152.75
2023-05-23T10:48:28.508Z,99143.97
2023-05-23T10:51:06.184Z,99149.44
2023-05-23T10:53:44.312Z,99159.50
2023-05-23T10:56:22.477Z,99159.00
2023-05-23T10:58:54.994Z,99142.28
2023-05-23T11:01:23.989Z,99139.63
2023-05-23T11:03:55.229Z,99137.56
2023-05-23T11:06:39.266Z,99141.16
2023-05-23T11:09:19.501Z,99131.91
2023-05-23T11:11:53.574Z,99135.81
2023-05-23T11:14:32.663Z,99133.91
2023-05-23T11:17:30.780Z,99139.37
2023-05-23T11:20:07.186Z,99124.31
2023-05-23T11:22:36.103Z,99118.78
2023-05-23T11:25:10.039Z,99122.03
2023-05-23T11:27:39.984Z,99114.94
2023-05-23T11:30:10.470Z,99113.00
2023-05-23T11:32:38.393Z,99111.75
2023-05-23T11:35:10.606Z,99115.66
2023-05-23T11:37:38.977Z,99109.06
2023-05-23T11:40:36.475Z,99110.50
2023-05-23T11:43:06.157Z,99100.13
2023-05-23T11:45:35.337Z,99095.72
2023-05-23T11:48:13.111Z,99082.38
2023-05-23T11:50:58.791Z,99086.09
2023-05-23T11:53:27.936Z,99083.94
2023-05-23T11:56:01.688Z,99089.59
2023-05-23T11:58:36.454Z,99067.25
2023-05-23T12:01:06.501Z,99064.13
2023-05-23T12:03:35.326Z,99059.62
2023-05-23T12:06:03.138Z,99065.84
2023-05-23T12:08:30.796Z,99067.19
2023-05-23T12:11:00.585Z,99049.69
2023-05-23T12:13:31.546Z,99053.38
2023-05-23T12:16:01.402Z,99043.97
2023-05-23T12:18:31.504Z,99048.03
2023-05-23T12:21:08.599Z,99049.97
2023-05-23T12:23:36.873Z,99039.50
2023-05-23T12:26:07.157Z,99033.75
2023-05-23T12:28:36.470Z,99030.69
2023-05-23T12:31:17.316Z,99027.50
2023-05-23T12:33:46.130Z,99028.91
2023-05-23T12:36:14.860Z,99025.81
2023-05-23T12:38:45.417Z,99022.47
2023-05-23T12:41:16.855Z,99018.25
2023-05-23T12:43:55.913Z,99014.38
2023-05-23T12:46:25.218Z,99015.28
2023-05-23T12:48:53.539Z,99015.69
2023-05-23T12:51:21.694Z,99012.06
2023-05-23T12:53:49.219Z,99019.41
2023-05-23T12:56:16.969Z,99012.50
2023-05-23T12:58:44.510Z,99006.66
2023-05-23T13:01:12.037Z,99010.44
2023-05-23T13:03:39.845Z,98993.56
2023-05-23T13:06:07.877Z,98992.59
2023-05-23T13:08:35.319Z,98986.28
2023-05-23T13:11:03.294Z,98983.66
2023-05-23T13:13:32.514Z,98984.25
2023-05-23T13:15:59.972Z,98983.72
2023-05-23T13:18:27.737Z,98978.13
2023-05-23T13:20:55.368Z,98981.84
2023-05-23T13:23:22.958Z,98989.44
2023-05-23T13:25:51.303Z,98983.00
2023-05-23T13:28:18.866Z,98975.16
2023-05-23T13:30:47.499Z,98966.41
2023-05-23T13:33:15.924Z,98970.63
2023-05-23T13:35:44.348Z,98974.34
2023-05-23T13:38:12.753Z,98980.63
2023-05-23T13:40:40.701Z,98976.41
2023-05-23T13:43:08.567Z,98983.72
2023-05-23T13:45:36.105Z,98986.28
2023-05-23T13:48:04.031Z,98977.16
2023-05-23T13:50:31.767Z,98981.09
2023-05-23T13:52:59.548Z,98978.19
2023-05-23T13:55:27.637Z,98983.31
2023-05-23T13:57:55.180Z,98977.44
2023-05-23T14:00:22.686Z,98973.56
2023-05-23T14:02:50.569Z,98976.31
2023-05-23T14:05:19.496Z,98987.09
2023-05-23T14:07:47.546Z,98976.25
2023-05-23T14:10:17.387Z,98976.66
2023-05-23T14:12:45.021Z,98976.31
2023-05-23T14:15:12.623Z,98969.44
2023-05-23T14:17:40.423Z,98963.34
2023-05-23T14:20:08.746Z,98960.72
2023-05-23T14:22:36.514Z,98970.94
2023-05-23T14:25:04.603Z,98949.87
2023-05-23T14:27:32.920Z,98952.78
2023-05-23T14:30:00.507Z,98941.59
2023-05-23T14:32:28.372Z,98943.88
2023-05-23T14:34:55.887Z,98950.44
2023-05-23T14:37:23.402Z,98945.72
2023-05-23T14:39:51.123Z,98946.63
2023-05-23T14:42:18.586Z,98947.94
2023-05-23T14:44:46.354Z,98950.19
2023-05-23T14:47:14.249Z,98942.16
2023-05-23T14:49:41.761Z,98940.47
2023-05-23T14:52:09.274Z,98939.28
2023-05-23T14:54:37.138Z,98938.41
2023-05-23T14:57:05.117Z,98936.84
2023-05-23T14:59:32.649Z,98930.84
2023-05-23T15:02:00.542Z,98937.06
2023-05-23T15:04:28.195Z,98932.63
2023-05-23T15:06:55.819Z,98937.66
2023-05-23T15:09:23.657Z,98943.03
2023-05-23T15:11:51.162Z,98934.97
2023-05-23T15:14:18.694Z,98938.56
2023-05-23T15:16:48.837Z,98936.69
2023-05-23T15:19:16.895Z,98933.44
2023-05-23T15:21:50.341Z,98934.09
2023-05-23T15:24:19.552Z,98945.03
2023-05-23T15:26:47.513Z,98937.91
2023-05-23T15:29:18.119Z,98947.41
2023-05-23T15:31:46.132Z,98958.25
2023-05-23T15:34:13.855Z,98955.22
2023-05-23T15:36:41.301Z,98959.91
2023-05-23T15:39:09.167Z,98955.19
2023-05-23T15:41:36.644Z,98952.84
2023-05-23T15:44:04.240Z,98951.13
2023-05-23T15:46:32.082Z,98955.13
2023-05-23T15:49:05.018Z,98959.75
2023-05-23T15:51:38.318Z,98956.16
2023-05-23T15:54:06.427Z,98949.03
2023-05-23T15:56:33.894Z,98938.81
2023-05-23T15:59:01.660Z,98946.12
2023-05-23T16:01:29.598Z,98942.41
2023-05-23T16:03:57.468Z,98943.59
2023-05-23T16:06:25.399Z,98935.97
2023-05-23T16:08:52.876Z,98939.03
2023-05-23T16:11:21.818Z,98944.09
2023-05-23T16:13:49.263Z,98934.84
2023-05-23T16:16:16.781Z,98939.69
2023-05-23T16:18:44.492Z,98944.09
2023-05-23T16:21:12.124Z,98945.44
2023-05-23T16:23:39.721Z,98942.78
2023-05-23T16:26:07.467Z,98939.75
2023-05-23T16:28:34.941Z,98941.16
2023-05-23T16:31:02.473Z,98951.84
2023-05-23T16:33:30.216Z,98954.88
2023-05-23T16:35:57.696Z,98967.50
2023-05-23T16:38:25.473Z,98950.00
2023-05-23T16:40:53.196Z,98964.09
2023-05-23T16:43:20.637Z,98970.13
2023-05-23T16:45:48.430Z,98973.44
2023-05-23T16:48:16.486Z,98978.69
2023-05-23T16:50:44.370Z,98975.69
2023-05-23T16:53:12.158Z,98968.84
2023-05-23T16:55:40.261Z,98963.09
2023-05-23T16:58:07.878Z,98965.16
2023-05-23T17:00:35.384Z,98965.84
2023-05-23T17:03:03.298Z,98962.94
2023-05-23T17:05:30.984Z,98968.88
2023-05-23T17:07:58.470Z,98970.06
2023-05-23T17:10:26.203Z,98973.13
2023-05-23T17:12:53.777Z,98985.38
2023-05-23T17:15:21.274Z,98987.00
2023-05-23T17:17:49.153Z,99033.97
2023-05-23T17:20:16.701Z,99080.97
2023-05-23T17:22:44.175Z,99098.09
2023-05-23T17:25:11.930Z,99091.47
2023-05-23T17:27:39.433Z,99102.37
2023-05-23T17:30:07.452Z,99109.19
2023-05-23T17:32:35.473Z,99104.03
2023-05-23T17:35:02.984Z,99104.59
2023-05-23T17:37:31.030Z,99113.62
2023-05-23T17:39:58.880Z,99115.28
2023-05-23T17:42:26.417Z,99113.97
2023-05-23T17:44:53.859Z,99118.84
2023-05-23T17:47:22.123Z,99120.91
2023-05-23T17:49:49.623Z,99120.56
2023-05-23T17:52:17.163Z,99131.66
2023-05-23T17:54:44.954Z,99129.28
2023-05-23T17:57:12.560Z,99136.66
2023-05-23T17:59:40.193Z,99124.69
2023-05-23T18:02:09.320Z,99129.25
2023-05-23T18:04:37.257Z,99130.78
2023-05-23T18:07:05.980Z,99139.16
2023-05-23T18:09:33.599Z,99139.72
2023-05-23T18:12:01.348Z,99149.41
2023-05-23T18:14:28.923Z,99147.06
2023-05-23T18:16:56.421Z,99165.53
2023-05-23T18:19:24.195Z,99150.69
2023-05-23T18:21:51.683Z,99151.88
2023-05-23T18:24:19.226Z,99151.69
2023-05-23T18:26:47.122Z,99148.06
2023-05-23T18:29:14.566Z,99152.16
2023-05-23T18:31:42.218Z,99139.09
2023-05-23T18:34:10.326Z,99140.13
2023-05-23T18:36:37.930Z,99137.06
2023-05-23T18:39:05.727Z,99137.19
2023-05-23T18:41:33.502Z,99135.91
2023-05-23T18:44:02.122Z,99136.88
2023-05-23T18:46:30.266Z,99132.37
2023-05-23T18:48:58.421Z,99132.91
2023-05-23T18:51:26.674Z,99118.97
2023-05-23T18:53:54.248Z,99120.56
2023-05-23T18:56:22.213Z,99120.78
2023-05-23T18:58:51.541Z,99125.25
2023-05-23T19:01:19.387Z,99134.09
2023-05-23T19:03:47.340Z,99128.91
2023-05-23T19:06:15.029Z,99128.00
2023-05-23T19:08:42.898Z,99136.78
2023-05-23T19:11:10.910Z,99153.97
2023-05-23T19:13:38.533Z,99151.38
2023-05-23T19:16:06.289Z,99155.78
2023-05-23T19:18:34.088Z,99147.09
2023-05-23T19:21:01.873Z,99156.34
2023-05-23T19:23:29.745Z,99161.97
2023-05-23T19:25:57.536Z,99180.81
2023-05-23T19:28:25.060Z,99182.78
2023-05-23T19:30:52.554Z,99178.56
2023-05-23T19:33:21.441Z,99186.78
2023-05-23T19:35:49.341Z,99177.53
2023-05-23T19:38:16.888Z,99180.69
2023-05-23T19:40:47.082Z,99169.31
2023-05-23T19:43:14.683Z,99172.19
2023-05-23T19:45:42.271Z,99177.94
2023-05-23T19:48:10.150Z,99179.22
2023-05-23T19:50:39.315Z,99187.84
2023-05-23T19:53:07.054Z,99191.16
2023-05-23T19:55:35.362Z,99185.97
2023-05-23T19:58:02.896Z,99182.19
2023-05-23T20:00:30.490Z,99179.88
2023-05-23T20:02:58.414Z,99180.03
2023-05-23T20:05:26.109Z,99185.94
2023-05-23T20:07:53.813Z,99191.38
2023-05-23T20:10:21.510Z,99195.97
2023-05-23T20:12:49.276Z,99193.03
2023-05-23T20:15:21.740Z,99196.66
2023-05-23T20:17:56.358Z,99186.91
2023-05-23T20:20:24.184Z,99197.50
2023-05-23T20:22:51.831Z,99202.59
2023-05-23T20:25:19.632Z,99204.03
2023-05-23T20:27:47.085Z,99197.28
2023-05-23T20:30:14.583Z,99183.47
2023-05-23T20:32:42.856Z,99182.62
2023-05-23T20:35:10.564Z,99187.63
2023-05-23T20:37:39.254Z,99191.00
2023-05-23T20:40:07.887Z,99190.66
2023-05-23T20:42:36.465Z,99192.37
2023-05-23T20:45:07.069Z,99198.19
2023-05-23T20:47:37.437Z,99200.81
2023-05-23T20:50:05.344Z,99197.25
2023-05-23T20:52:32.902Z,99208.56
2023-05-23T20:55:01.146Z,99217.81
2023-05-23T20:57:30.117Z,99217.41
2023-05-23T20:59:57.759Z,99224.72
2023-05-23T21:02:25.851Z,99235.25
2023-05-23T21:04:53.490Z,99231.06
2023-05-23T21:07:20.972Z,99229.34
2023-05-23T21:09:48.862Z,99229.78
2023-05-23T21:12:16.277Z,99233.31
2023-05-23T21:14:43.769Z,99251.12
2023-05-23T21:17:11.684Z,99248.78
2023-05-23T21:19:39.377Z,99253.19
2023-05-23T21:22:07.015Z,99264.31
2023-05-23T21:24:34.806Z,99260.56
2023-05-23T21:27:02.986Z,99264.59
2023-05-23T21:29:30.441Z,99261.37
2023-05-23T21:31:58.788Z,99266.03
2023-05-23T21:34:26.263Z,99267.97
2023-05-23T21:36:53.781Z,99272.78
2023-05-23T21:39:21.612Z,99266.06
2023-05-23T21:41:49.172Z,99275.72
2023-05-23T21:44:17.780Z,99282.66
2023-05-23T21:46:45.869Z,99285.37
2023-05-23T21:49:13.500Z,99283.03
2023-05-23T21:51:41.002Z,99281.56
2023-05-23T21:54:08.790Z,99294.97
2023-05-23T21:56:36.322Z,99283.84
2023-05-23T21:59:04.263Z,99291.00
2023-05-23T22:01:32.440Z,99285.94
2023-05-23T22:04:00.533Z,99298.91
2023-05-23T22:06:28.079Z,99298.25
2023-05-23T22:08:55.625Z,99303.25
2023-05-23T22:11:23.370Z,99302.59
2023-05-23T22:13:50.960Z,99306.16
2023-05-23T22:16:18.545Z,99309.94
2023-05-23T22:21:16.670Z,99305.34
2023-05-23T22:23:44.119Z,99299.06
2023-05-23T22:26:12.730Z,99307.22
2023-05-23T22:28:40.393Z,99301.94
2023-05-23T22:31:08.764Z,99306.94
2023-05-23T22:33:37.655Z,99303.66
2023-05-23T22:36:06.162Z,99301.53
2023-05-23T22:38:34.071Z,99297.97
2023-05-23T22:41:03.152Z,99304.06
2023-05-23T22:43:30.911Z,99309.31
2023-05-23T22:45:58.448Z,99305.09
2023-05-23T22:48:26.245Z,99301.94
2023-05-23T22:50:54.918Z,99305.50
2023-05-23T22:53:24.979Z,99295.62
2023-05-23T22:55:52.729Z,99294.16
2023-05-23T22:58:20.563Z,99293.72
2023-05-23T23:00:48.085Z,99294.97
2023-05-23T23:03:16.090Z,99302.09
2023-05-23T23:05:44.434Z,99304.19
2023-05-23T23:08:12.404Z,99297.06
2023-05-23T23:10:41.878Z,99296.47
2023-05-23T23:13:09.524Z,99309.66
2023-05-23T23:15:37.555Z,99300.91
2023-05-23T23:18:06.030Z,99308.34
2023-05-23T23:20:33.654Z,99305.78
2023-05-23T23:23:01.219Z,99304.53
2023-05-23T23:25:30.368Z,99299.25
2023-05-23T23:27:57.845Z,99299.25
2023-05-23T23:30:25.834Z,99298.94
2023-05-23T23:32:53.606Z,99301.75
2023-05-23T23:35:21.846Z,99308.88
2023-05-23T23:37:49.344Z,99304.28
2023-05-23T23:40:17.164Z,99311.00
2023-05-23T23:42:44.666Z,99310.13
2023-05-23T23:45:12.193Z,99310.38
2023-05-23T23:47:39.982Z,99304.69
2023-05-23T23:50:08.378Z,99312.19
2023-05-23T23:52:37.395Z,99310.56
2023-05-23T23:55:05.691Z,99315.13
2023-05-23T23:57:33.236Z,99311.16
